createdAt,value
2023-05-22T11:19:41.050Z,18.02
2023-05-22T11:22:09.643Z,12.32
2023-05-22T11:24:40.067Z,10.30
2023-05-22T11:27:07.939Z,10.43
2023-05-22T11:29:41.066Z,9.50
2023-05-22T11:32:09.043Z,10.88
2023-05-22T11:34:42.998Z,10.75
2023-05-22T11:37:10.869Z,12.35
2023-05-22T11:39:38.123Z,10.18
2023-05-22T11:42:08.143Z,11.88
2023-05-22T11:44:35.424Z,11.63
2023-05-22T11:47:04.234Z,10.23
2023-05-22T11:49:31.932Z,11.07
2023-05-22T11:51:59.909Z,11.15
2023-05-22T11:54:32.018Z,10.02
2023-05-22T11:57:01.678Z,9.90
2023-05-22T11:59:29.027Z,8.75
2023-05-22T12:01:56.456Z,10.82
2023-05-22T12:04:23.823Z,10.98
2023-05-22T12:06:51.900Z,9.07
2023-05-22T12:09:19.834Z,10.02
2023-05-22T12:11:55.041Z,10.57
2023-05-22T12:14:31.260Z,10.77
2023-05-22T12:16:59.439Z,11.43
2023-05-22T12:19:27.676Z,11.45
2023-05-22T12:21:54.972Z,10.75
2023-05-22T12:24:23.606Z,14.85
2023-05-22T12:26:52.130Z,9.93
2023-05-22T12:29:22.545Z,10.07
2023-05-22T12:31:50.594Z,10.02
2023-05-22T12:34:18.979Z,9.55
2023-05-22T12:36:49.335Z,11.15
2023-05-22T12:39:22.293Z,9.98
2023-05-22T12:41:49.592Z,7.78
2023-05-22T12:44:23.824Z,9.25
2023-05-22T12:46:53.678Z,9.27
2023-05-22T12:49:23.789Z,9.98
2023-05-22T12:51:53.681Z,9.20
2023-05-22T12:54:20.904Z,8.48
2023-05-22T12:56:48.260Z,10.35
2023-05-22T12:59:20.110Z,10.82
2023-05-22T13:01:48.383Z,9.18
2023-05-22T13:04:18.094Z,10.07
2023-05-22T13:06:45.281Z,11.73
2023-05-22T13:09:16.830Z,8.98
2023-05-22T13:11:46.362Z,9.48
2023-05-22T13:14:15.592Z,10.93
2023-05-22T13:16:42.973Z,9.02
2023-05-22T13:19:12.778Z,8.02
2023-05-22T13:21:44.427Z,8.07
2023-05-22T13:24:11.658Z,7.85
2023-05-22T13:26:39.182Z,8.38
2023-05-22T13:29:06.653Z,9.13
2023-05-22T13:31:37.343Z,8.70
2023-05-22T13:34:05.504Z,8.05
2023-05-22T13:36:32.974Z,9.88
2023-05-22T13:39:00.412Z,8.77
2023-05-22T13:41:28.002Z,8.25
2023-05-22T13:43:55.189Z,8.45
2023-05-22T13:46:22.949Z,7.95
2023-05-22T13:48:50.438Z,7.55
2023-05-22T13:51:20.024Z,9.73
2023-05-22T13:53:47.501Z,8.88
2023-05-22T13:56:14.778Z,7.55
2023-05-22T13:58:46.722Z,7.80
2023-05-22T14:01:14.110Z,8.90
2023-05-22T14:03:41.517Z,8.68
2023-05-22T14:06:08.981Z,8.02
2023-05-22T14:08:36.733Z,9.32
2023-05-22T14:11:05.256Z,8.18
2023-05-22T14:13:32.486Z,7.93
2023-05-22T14:15:59.956Z,7.22
2023-05-22T14:18:27.990Z,8.43
2023-05-22T14:21:04.732Z,8.40
2023-05-22T14:23:32.909Z,8.18
2023-05-22T14:26:00.190Z,8.88
2023-05-22T14:28:27.645Z,7.85
2023-05-22T14:30:56.031Z,7.93
2023-05-22T14:33:23.540Z,8.20
2023-05-22T14:35:52.672Z,7.18
2023-05-22T14:38:22.635Z,6.97
2023-05-22T14:40:53.168Z,9.10
2023-05-22T14:43:24.844Z,9.13
2023-05-22T14:45:52.372Z,7.82
2023-05-22T14:48:26.698Z,8.30
2023-05-22T14:50:54.611Z,6.97
2023-05-22T14:53:22.380Z,7.65
2023-05-22T14:55:49.718Z,7.30
2023-05-22T14:58:17.254Z,8.25
2023-05-22T15:00:46.283Z,8.50
2023-05-22T15:03:13.986Z,8.18
2023-05-22T15:05:41.855Z,7.10
2023-05-22T15:08:09.414Z,7.47
2023-05-22T15:10:36.838Z,8.05
2023-05-22T15:13:05.115Z,7.07
2023-05-22T15:15:34.690Z,7.20
2023-05-22T15:18:04.668Z,7.22
2023-05-22T15:20:34.989Z,10.85
2023-05-22T15:23:03.331Z,7.30
2023-05-22T15:25:33.767Z,7.85
2023-05-22T15:28:02.415Z,7.30
2023-05-22T15:30:35.355Z,7.10
2023-05-22T15:35:33.163Z,9.15
2023-05-22T15:38:00.822Z,7.05
2023-05-22T15:40:28.283Z,7.40
2023-05-22T15:42:55.864Z,8.07
2023-05-22T15:45:25.875Z,6.47
2023-05-22T15:47:53.525Z,8.20
2023-05-22T15:50:26.007Z,8.20
2023-05-22T15:52:55.482Z,7.38
2023-05-22T15:55:25.362Z,7.03
2023-05-22T15:57:55.102Z,8.20
2023-05-22T16:00:22.454Z,7.40
2023-05-22T16:02:52.154Z,7.60
2023-05-22T16:05:22.102Z,6.78
2023-05-22T16:07:49.589Z,6.82
2023-05-22T16:10:18.736Z,6.90
2023-05-22T16:12:48.186Z,8.68
2023-05-22T16:15:18.304Z,7.75
2023-05-22T16:17:46.409Z,7.07
2023-05-22T16:20:13.895Z,6.72
2023-05-22T16:27:45.910Z,7.50
2023-05-22T16:30:16.601Z,7.25
2023-05-22T16:32:48.438Z,7.60
2023-05-22T16:35:16.559Z,8.73
2023-05-22T16:37:44.319Z,8.88
2023-05-22T16:40:12.053Z,7.32
2023-05-22T16:42:39.315Z,7.93
2023-05-22T16:45:07.582Z,6.55
2023-05-22T16:47:39.626Z,7.75
2023-05-22T16:50:10.690Z,7.55
2023-05-22T16:52:38.131Z,7.55
2023-05-22T16:55:06.285Z,7.32
2023-05-22T16:58:17.512Z,7.90
2023-05-22T17:00:51.480Z,6.68
2023-05-22T17:03:19.699Z,7.53
2023-05-22T17:05:52.845Z,7.30
2023-05-22T17:08:28.962Z,6.60
2023-05-22T17:10:56.475Z,7.32
2023-05-22T17:13:28.295Z,7.13
2023-05-22T17:15:58.283Z,8.32
2023-05-22T17:18:25.780Z,7.32
2023-05-22T17:20:55.858Z,7.40
2023-05-22T17:23:23.439Z,7.47
2023-05-22T17:25:53.302Z,7.35
2023-05-22T17:28:22.985Z,7.68
2023-05-22T17:30:52.582Z,7.65
2023-05-22T17:33:19.809Z,6.22
2023-05-22T17:35:47.530Z,6.20
2023-05-22T17:38:14.949Z,6.63
2023-05-22T17:40:45.729Z,6.90
2023-05-22T17:43:13.943Z,8.82
2023-05-22T17:45:41.805Z,7.28
2023-05-22T17:48:10.451Z,7.38
2023-05-22T17:50:38.744Z,6.32
2023-05-22T17:53:09.097Z,6.63
2023-05-22T17:55:38.654Z,5.80
2023-05-22T17:58:06.028Z,7.20
2023-05-22T18:00:36.032Z,6.10
2023-05-22T18:03:03.433Z,8.35
2023-05-22T18:05:30.801Z,6.97
2023-05-22T18:08:01.649Z,6.25
2023-05-22T18:10:33.614Z,5.93
2023-05-22T18:13:01.002Z,6.65
2023-05-22T18:15:28.333Z,7.25
2023-05-22T18:17:55.818Z,6.65
2023-05-22T18:20:23.359Z,7.82
2023-05-22T18:22:50.665Z,7.35
2023-05-22T18:25:18.188Z,7.72
2023-05-22T18:27:48.100Z,6.38
2023-05-22T18:30:15.649Z,6.95
2023-05-22T18:32:43.145Z,6.63
2023-05-22T18:35:10.905Z,6.68
2023-05-22T18:37:38.346Z,9.15
2023-05-22T18:40:09.026Z,7.55
2023-05-22T18:42:39.273Z,7.43
2023-05-22T18:45:07.463Z,8.45
2023-05-22T18:47:37.179Z,11.07
2023-05-22T18:50:06.312Z,9.75
2023-05-22T18:52:36.088Z,6.32
2023-05-22T18:55:03.621Z,8.55
2023-05-22T18:57:31.048Z,7.30
2023-05-22T18:59:59.351Z,8.15
2023-05-22T19:02:26.629Z,7.70
2023-05-22T19:04:54.289Z,7.88
2023-05-22T19:07:21.707Z,7.53
2023-05-22T19:09:49.713Z,7.63
2023-05-22T19:12:17.193Z,7.70
2023-05-22T19:14:44.785Z,8.23
2023-05-22T19:17:12.320Z,7.20
2023-05-22T19:19:39.728Z,9.15
2023-05-22T19:22:07.199Z,7.60
2023-05-22T19:24:34.472Z,9.05
2023-05-22T19:27:02.159Z,8.05
2023-05-22T19:29:29.489Z,7.90
2023-05-22T19:31:56.703Z,8.60
2023-05-22T19:34:26.250Z,8.07
2023-05-22T19:36:57.756Z,8.25
2023-05-22T19:39:25.439Z,8.55
2023-05-22T19:41:54.334Z,7.63
2023-05-22T19:44:21.504Z,8.27
2023-05-22T19:46:49.077Z,8.90
2023-05-22T19:49:16.730Z,9.13
2023-05-22T19:51:46.463Z,7.88
2023-05-22T19:54:13.829Z,9.15
2023-05-22T19:56:41.126Z,8.20
2023-05-22T19:59:09.711Z,9.38
2023-05-22T20:01:37.020Z,9.88
2023-05-22T20:04:04.499Z,7.85
2023-05-22T20:06:33.573Z,8.18
2023-05-22T20:09:05.762Z,10.32
2023-05-22T20:11:35.761Z,8.33
2023-05-22T20:14:03.701Z,7.95
2023-05-22T20:16:56.225Z,7.70
2023-05-22T20:19:32.438Z,8.98
2023-05-22T20:22:00.713Z,8.30
2023-05-22T20:24:27.956Z,8.50
2023-05-22T20:26:56.855Z,8.32
2023-05-22T20:29:24.225Z,8.23
2023-05-22T20:31:54.618Z,8.50
2023-05-22T20:34:26.741Z,9.33
2023-05-22T20:36:54.789Z,9.55
2023-05-22T20:39:26.343Z,8.40
2023-05-22T20:41:56.931Z,9.65
2023-05-22T20:44:24.767Z,8.88
2023-05-22T20:46:54.247Z,9.25
2023-05-22T20:49:23.798Z,8.38
2023-05-22T20:51:51.537Z,8.30
2023-05-22T20:54:19.272Z,9.70
2023-05-22T20:56:48.716Z,7.97
2023-05-22T20:59:16.180Z,7.93
2023-05-22T21:01:43.716Z,8.60
2023-05-22T21:04:11.210Z,8.75
2023-05-22T21:06:39.354Z,10.65
2023-05-22T21:09:06.876Z,9.93
2023-05-22T21:11:35.318Z,8.23
2023-05-22T21:14:02.680Z,8.07
2023-05-22T21:16:30.116Z,8.07
2023-05-22T21:18:57.375Z,8.90
2023-05-22T21:21:27.031Z,9.50
2023-05-22T21:23:56.638Z,8.25
2023-05-22T21:26:26.446Z,8.35
2023-05-22T21:28:53.906Z,7.57
2023-05-22T21:31:21.435Z,7.68
2023-05-22T21:33:48.746Z,8.57
2023-05-22T21:36:16.302Z,8.18
2023-05-22T21:38:44.229Z,8.23
2023-05-22T21:41:11.930Z,8.77
2023-05-22T21:43:39.563Z,8.90
2023-05-22T21:46:06.837Z,7.10
2023-05-22T21:48:34.400Z,9.98
2023-05-22T21:51:01.743Z,8.30
2023-05-22T21:53:31.608Z,7.72
2023-05-22T21:55:59.037Z,7.18
2023-05-22T21:58:26.315Z,7.45
2023-05-22T22:00:58.761Z,7.47
2023-05-22T22:03:26.160Z,8.60
2023-05-22T22:05:55.820Z,7.20
2023-05-22T22:08:28.305Z,8.05
2023-05-22T22:10:58.365Z,7.17
2023-05-22T22:13:26.850Z,7.40
2023-05-22T22:15:54.092Z,7.65
2023-05-22T22:18:22.036Z,6.80
2023-05-22T22:20:54.034Z,9.15
2023-05-22T22:23:24.191Z,7.97
2023-05-22T22:25:54.337Z,7.15
2023-05-22T22:28:23.851Z,8.10
2023-05-22T22:30:54.771Z,7.10
2023-05-22T22:33:22.964Z,7.40
2023-05-22T22:35:51.379Z,7.72
2023-05-22T22:38:21.218Z,7.43
2023-05-22T22:40:54.601Z,7.53
2023-05-22T22:43:24.242Z,6.55
2023-05-22T22:45:51.836Z,7.68
2023-05-22T22:48:22.373Z,7.93
2023-05-22T22:50:50.075Z,7.20
2023-05-22T22:53:17.749Z,6.68
2023-05-22T22:55:47.266Z,7.72
2023-05-22T22:58:15.025Z,6.25
2023-05-22T23:00:42.200Z,7.13
2023-05-22T23:03:12.400Z,8.25
2023-05-22T23:05:40.049Z,7.57
2023-05-22T23:08:07.744Z,8.15
2023-05-22T23:10:40.488Z,8.35
2023-05-22T23:13:10.379Z,8.15
2023-05-22T23:15:40.219Z,9.15
2023-05-22T23:18:07.895Z,10.77
2023-05-22T23:20:35.381Z,9.38
2023-05-22T23:23:05.263Z,9.07
2023-05-22T23:25:35.096Z,8.95
2023-05-22T23:28:06.323Z,9.95
2023-05-22T23:30:36.020Z,9.82
2023-05-22T23:33:06.002Z,9.70
2023-05-22T23:35:38.156Z,11.97
2023-05-22T23:38:05.783Z,11.27
2023-05-22T23:40:35.389Z,12.57
2023-05-22T23:43:05.052Z,11.32
2023-05-22T23:45:32.543Z,12.18
2023-05-22T23:48:00.115Z,12.20
2023-05-22T23:50:27.428Z,11.63
2023-05-22T23:52:55.038Z,12.90
2023-05-22T23:55:22.358Z,12.23
2023-05-22T23:57:52.478Z,13.15
